Other Surface Observations
Issued by NWS Great Falls, MT

Home | Current Version | Previous Version | Text Only | Print | Product List | Glossary On
Versions: 1 2 3 4 5 6 7 8 9 10 11 12 13 14 15 16 17 18 19 20 21 22 23 24 25 26 27 28 29 30 31 32 33 34 35 36 37 38 39 40 41 42 43 44 45 46 47 48 49 50
000
SXUS55 KTFX 241744
OSOTFX
AREA AWOS OBSERVATIONS
NATIONAL WEATHER SERVICE GREAT FALLS MT
1144 AM MDT SUN SEP 24 2017

METAR KPWD 241745Z AUTO 35004KT 10SM 09/04 A3011 RMK PLENTYWOOD
METAR KPO1 241745Z AUTO 33005KT 10SM 11/03 A3011 RMK POPLAR
METAR KS71 241745Z AUTO 00000KT 10SM 08/05 A3012 RMK CHINOOK
METAR K38S 241745Z AUTO 00000KT 10SM 06/M01 A3015 RMK DEER LODGE
METAR K3U3 241745Z AUTO 05006KT 10SM 07/M01 A3012 RMK ANACONDA
METAR K6S5 241745Z AUTO 00000KT 10SM 08/01 A3014 RMK HAMILTON
METAR KS59 241745Z AUTO 00000KT 10SM 12/04 A3010 RMK LIBBY
METAR K88M 241745Z AUTO 00000KT 10SM 10/06 A3013 RMK EUREKA



USA.gov is the U.S. government's official web portal to all federal, state and local government web resources and services.